sensor_id;sensor_type;location;lat;lon;timestamp;temperature;humidity
19152;DHT22;9708;53.114;9.388;2023-02-18T04:48:22;7.20;99.90
19152;DHT22;9708;53.114;9.388;2023-02-18T04:50:49;7.20;99.90
19152;DHT22;9708;53.114;9.388;2023-02-18T04:53:15;7.20;99.90
19152;DHT22;9708;53.114;9.388;2023-02-18T04:55:42;7.10;99.90
19152;DHT22;9708;53.114;9.388;2023-02-18T04:58:09;7.20;99.90
19152;DHT22;9708;53.114;9.388;2023-02-18T05:00:36;7.20;99.90
19152;DHT22;9708;53.114;9.388;2023-02-18T05:03:02;7.10;99.90
19152;DHT22;9708;53.114;9.388;2023-02-18T05:05:31;7.10;99.90
19152;DHT22;9708;53.114;9.388;2023-02-18T05:07:57;7.10;99.90
19152;DHT22;9708;53.114;9.388;2023-02-18T05:10:24;7.10;99.90
19152;DHT22;9708;53.114;9.388;2023-02-18T05:12:51;7.10;99.90
19152;DHT22;9708;53.114;9.388;2023-02-18T05:15:18;7.00;99.90
19152;DHT22;9708;53.114;9.388;2023-02-18T05:17:44;7.00;99.90
19152;DHT22;9708;53.114;9.388;2023-02-18T05:20:11;7.00;99.90
19152;DHT22;9708;53.114;9.388;2023-02-18T05:22:39;7.00;99.90
19152;DHT22;9708;53.114;9.388;2023-02-18T05:25:07;7.00;99.90
19152;DHT22;9708;53.114;9.388;2023-02-18T05:27:34;7.00;99.90
19152;DHT22;9708;53.114;9.388;2023-02-18T05:30:01;7.00;99.90
19152;DHT22;9708;53.114;9.388;2023-02-18T05:32:27;6.90;99.90
19152;DHT22;9708;53.114;9.388;2023-02-18T05:34:54;7.00;99.90
19152;DHT22;9708;53.114;9.388;2023-02-18T05:37:21;7.00;99.90
19152;DHT22;9708;53.114;9.388;2023-02-18T05:39:49;7.00;99.90
19152;DHT22;9708;53.114;9.388;2023-02-18T05:42:16;7.00;99.90
19152;DHT22;9708;53.114;9.388;2023-02-18T05:44:43;6.90;99.90
19152;DHT22;9708;53.114;9.388;2023-02-18T05:47:11;6.90;99.90
19152;DHT22;9708;53.114;9.388;2023-02-18T05:49:39;6.90;99.90
19152;DHT22;9708;53.114;9.388;2023-02-18T05:52:06;7.00;99.90
19152;DHT22;9708;53.114;9.388;2023-02-18T05:54:34;6.90;99.90
19152;DHT22;9708;53.114;9.388;2023-02-18T05:57:02;6.90;99.90
19152;DHT22;9708;53.114;9.388;2023-02-18T05:59:29;6.90;99.90
19152;DHT22;9708;53.114;9.388;2023-02-18T06:01:56;6.90;99.90
19152;DHT22;9708;53.114;9.388;2023-02-18T06:04:23;6.90;99.90
19152;DHT22;9708;53.114;9.388;2023-02-18T06:06:50;6.90;99.90
19152;DHT22;9708;53.114;9.388;2023-02-18T06:09:17;6.90;99.90
19152;DHT22;9708;53.114;9.388;2023-02-18T06:11:43;6.90;99.90
19152;DHT22;9708;53.114;9.388;2023-02-18T06:14:12;6.90;99.90
19152;DHT22;9708;53.114;9.388;2023-02-18T06:16:38;7.00;99.90
19152;DHT22;9708;53.114;9.388;2023-02-18T06:19:05;6.90;99.90
19152;DHT22;9708;53.114;9.388;2023-02-18T06:21:32;6.90;99.90
19152;DHT22;9708;53.114;9.388;2023-02-18T06:23:59;7.00;99.90
19152;DHT22;9708;53.114;9.388;2023-02-18T06:26:26;7.00;99.90
19152;DHT22;9708;53.114;9.388;2023-02-18T06:28:52;7.00;99.90
19152;DHT22;9708;53.114;9.388;2023-02-18T06:31:21;7.00;99.90
19152;DHT22;9708;53.114;9.388;2023-02-18T06:33:47;7.00;99.90
19152;DHT22;9708;53.114;9.388;2023-02-18T06:36:14;7.00;99.90
19152;DHT22;9708;53.114;9.388;2023-02-18T06:38:42;7.00;99.90
19152;DHT22;9708;53.114;9.388;2023-02-18T06:41:10;7.00;99.90
19152;DHT22;9708;53.114;9.388;2023-02-18T06:43:38;7.00;99.90
19152;DHT22;9708;53.114;9.388;2023-02-18T06:46:05;6.90;99.90
19152;DHT22;9708;53.114;9.388;2023-02-18T06:48:33;6.90;99.90
19152;DHT22;9708;53.114;9.388;2023-02-18T06:51:00;7.00;99.90
19152;DHT22;9708;53.114;9.388;2023-02-18T06:53:27;7.00;99.90
19152;DHT22;9708;53.114;9.388;2023-02-18T06:55:53;6.90;99.90
19152;DHT22;9708;53.114;9.388;2023-02-18T06:58:20;6.90;99.90
19152;DHT22;9708;53.114;9.388;2023-02-18T07:00:48;7.00;99.90
19152;DHT22;9708;53.114;9.388;2023-02-18T07:03:14;7.00;99.90
19152;DHT22;9708;53.114;9.388;2023-02-18T07:05:42;7.00;99.90
19152;DHT22;9708;53.114;9.388;2023-02-18T07:08:09;6.90;99.90
19152;DHT22;9708;53.114;9.388;2023-02-18T07:10:36;6.90;99.90
19152;DHT22;9708;53.114;9.388;2023-02-18T07:13:03;6.90;99.90
19152;DHT22;9708;53.114;9.388;2023-02-18T07:15:30;6.90;99.90
19152;DHT22;9708;53.114;9.388;2023-02-18T07:17:57;7.00;99.90
19152;DHT22;9708;53.114;9.388;2023-02-18T07:20:24;7.00;99.90
19152;DHT22;9708;53.114;9.388;2023-02-18T07:22:53;6.90;99.90
19152;DHT22;9708;53.114;9.388;2023-02-18T07:25:20;7.00;99.90
19152;DHT22;9708;53.114;9.388;2023-02-18T07:27:47;6.90;99.90
19152;DHT22;9708;53.114;9.388;2023-02-18T07:30:14;7.00;99.90
19152;DHT22;9708;53.114;9.388;2023-02-18T07:32:41;7.00;99.90
19152;DHT22;9708;53.114;9.388;2023-02-18T07:35:09;7.00;99.90
19152;DHT22;9708;53.114;9.388;2023-02-18T07:37:35;6.90;99.90
19152;DHT22;9708;53.114;9.388;2023-02-18T07:40:05;7.00;99.90
19152;DHT22;9708;53.114;9.388;2023-02-18T07:42:32;6.90;99.90
19152;DHT22;9708;53.114;9.388;2023-02-18T07:44:58;7.00;99.90
19152;DHT22;9708;53.114;9.388;2023-02-18T07:47:25;7.00;99.90
19152;DHT22;9708;53.114;9.388;2023-02-18T07:49:52;7.00;99.90
19152;DHT22;9708;53.114;9.388;2023-02-18T07:52:19;7.10;99.90
19152;DHT22;9708;53.114;9.388;2023-02-18T07:54:46;7.20;99.90
19152;DHT22;9708;53.114;9.388;2023-02-18T07:57:14;7.10;99.90
19152;DHT22;9708;53.114;9.388;2023-02-18T07:59:41;7.20;99.90
19152;DHT22;9708;53.114;9.388;2023-02-18T08:02:14;7.00;99.90
19152;DHT22;9708;53.114;9.388;2023-02-18T08:04:43;7.10;99.90
19152;DHT22;9708;53.114;9.388;2023-02-18T08:07:12;7.00;99.90
19152;DHT22;9708;53.114;9.388;2023-02-18T08:09:39;7.10;99.90
19152;DHT22;9708;53.114;9.388;2023-02-18T08:12:07;7.10;99.90
19152;DHT22;9708;53.114;9.388;2023-02-18T08:14:35;7.10;99.90
19152;DHT22;9708;53.114;9.388;2023-02-18T08:17:02;7.20;99.90
19152;DHT22;9708;53.114;9.388;2023-02-18T08:19:28;7.20;99.90
19152;DHT22;9708;53.114;9.388;2023-02-18T08:21:55;7.20;99.90
19152;DHT22;9708;53.114;9.388;2023-02-18T08:24:22;7.20;99.90
19152;DHT22;9708;53.114;9.388;2023-02-18T08:26:49;7.30;99.90
19152;DHT22;9708;53.114;9.388;2023-02-18T08:29:15;7.30;99.90
19152;DHT22;9708;53.114;9.388;2023-02-18T08:31:43;7.30;99.90
19152;DHT22;9708;53.114;9.388;2023-02-18T08:34:10;7.40;99.90
19152;DHT22;9708;53.114;9.388;2023-02-18T08:36:37;7.40;99.90
19152;DHT22;9708;53.114;9.388;2023-02-18T08:39:04;7.40;99.90
19152;DHT22;9708;53.114;9.388;2023-02-18T08:41:30;7.40;99.90
19152;DHT22;9708;53.114;9.388;2023-02-18T08:43:57;7.50;99.90
19152;DHT22;9708;53.114;9.388;2023-02-18T08:46:24;7.50;99.90
19152;DHT22;9708;53.114;9.388;2023-02-18T08:48:52;7.60;99.90
19152;DHT22;9708;53.114;9.388;2023-02-18T08:51:20;7.60;99.90
19152;DHT22;9708;53.114;9.388;2023-02-18T08:53:47;7.80;99.90
19152;DHT22;9708;53.114;9.388;2023-02-18T08:56:15;7.80;99.90
19152;DHT22;9708;53.114;9.388;2023-02-18T08:58:42;8.00;99.90
19152;DHT22;9708;53.114;9.388;2023-02-18T09:01:11;8.10;99.90
19152;DHT22;9708;53.114;9.388;2023-02-18T09:03:38;8.10;99.90
19152;DHT22;9708;53.114;9.388;2023-02-18T09:06:07;8.30;99.90
19152;DHT22;9708;53.114;9.388;2023-02-18T09:08:34;8.30;99.90
19152;DHT22;9708;53.114;9.388;2023-02-18T09:11:02;8.40;99.90
19152;DHT22;9708;53.114;9.388;2023-02-18T09:13:30;8.50;99.90
19152;DHT22;9708;53.114;9.388;2023-02-18T09:15:59;8.60;99.90
19152;DHT22;9708;53.114;9.388;2023-02-18T09:18:26;8.70;99.90
19152;DHT22;9708;53.114;9.388;2023-02-18T09:20:55;8.70;99.90
19152;DHT22;9708;53.114;9.388;2023-02-18T09:23:25;8.80;99.90
19152;DHT22;9708;53.114;9.388;2023-02-18T09:25:52;8.90;99.90
19152;DHT22;9708;53.114;9.388;2023-02-18T09:28:19;8.90;99.90
19152;DHT22;9708;53.114;9.388;2023-02-18T09:30:46;9.10;99.90
19152;DHT22;9708;53.114;9.388;2023-02-18T09:33:13;9.20;99.90
19152;DHT22;9708;53.114;9.388;2023-02-18T09:35:40;9.20;99.90
19152;DHT22;9708;53.114;9.388;2023-02-18T09:38:07;9.40;99.90
19152;DHT22;9708;53.114;9.388;2023-02-18T09:40:38;9.40;99.90
19152;DHT22;9708;53.114;9.388;2023-02-18T09:43:05;9.50;99.90
19152;DHT22;9708;53.114;9.388;2023-02-18T09:45:33;9.70;99.90
19152;DHT22;9708;53.114;9.388;2023-02-18T09:48:01;9.70;99.90
19152;DHT22;9708;53.114;9.388;2023-02-18T09:50:31;9.80;99.90
19152;DHT22;9708;53.114;9.388;2023-02-18T09:52:59;10.00;99.90
19152;DHT22;9708;53.114;9.388;2023-02-18T09:55:30;10.10;99.90
19152;DHT22;9708;53.114;9.388;2023-02-18T09:58:01;10.20;99.90
19152;DHT22;9708;53.114;9.388;2023-02-18T10:00:31;10.20;99.90
19152;DHT22;9708;53.114;9.388;2023-02-18T10:03:03;10.20;99.90
19152;DHT22;9708;53.114;9.388;2023-02-18T10:05:32;10.20;99.90
19152;DHT22;9708;53.114;9.388;2023-02-18T10:08:02;10.20;99.90
19152;DHT22;9708;53.114;9.388;2023-02-18T10:10:36;10.30;99.90
19152;DHT22;9708;53.114;9.388;2023-02-18T10:13:11;10.40;99.90
19152;DHT22;9708;53.114;9.388;2023-02-18T10:15:39;10.30;99.90
19152;DHT22;9708;53.114;9.388;2023-02-18T10:18:21;10.40;99.90
19152;DHT22;9708;53.114;9.388;2023-02-18T10:20:50;10.40;99.90
19152;DHT22;9708;53.114;9.388;2023-02-18T10:23:18;10.40;99.90
19152;DHT22;9708;53.114;9.388;2023-02-18T10:25:46;10.40;99.90
19152;DHT22;9708;53.114;9.388;2023-02-18T10:28:18;10.40;99.90
19152;DHT22;9708;53.114;9.388;2023-02-18T10:30:51;10.50;99.90
19152;DHT22;9708;53.114;9.388;2023-02-18T10:33:31;10.50;99.90
19152;DHT22;9708;53.114;9.388;2023-02-18T10:36:06;10.50;99.90
19152;DHT22;9708;53.114;9.388;2023-02-18T10:38:42;10.60;99.90
19152;DHT22;9708;53.114;9.388;2023-02-18T10:41:18;10.60;99.90
19152;DHT22;9708;53.114;9.388;2023-02-18T10:43:53;10.60;99.90
19152;DHT22;9708;53.114;9.388;2023-02-18T10:46:30;10.60;99.90
19152;DHT22;9708;53.114;9.388;2023-02-18T10:49:13;10.60;99.90
19152;DHT22;9708;53.114;9.388;2023-02-18T10:51:49;10.50;99.90
19152;DHT22;9708;53.114;9.388;2023-02-18T10:54:16;10.50;99.90
19152;DHT22;9708;53.114;9.388;2023-02-18T10:56:46;10.40;99.90
19152;DHT22;9708;53.114;9.388;2023-02-18T10:59:19;10.40;99.90
19152;DHT22;9708;53.114;9.388;2023-02-18T11:01:55;10.40;99.90
19152;DHT22;9708;53.114;9.388;2023-02-18T11:04:25;10.40;99.90
19152;DHT22;9708;53.114;9.388;2023-02-18T11:06:54;10.40;99.90
19152;DHT22;9708;53.114;9.388;2023-02-18T11:09:39;10.40;99.90
19152;DHT22;9708;53.114;9.388;2023-02-18T11:12:13;10.40;99.90
19152;DHT22;9708;53.114;9.388;2023-02-18T11:14:44;10.40;99.90
19152;DHT22;9708;53.114;9.388;2023-02-18T11:17:20;10.40;99.90
19152;DHT22;9708;53.114;9.388;2023-02-18T11:19:53;10.40;99.90
19152;DHT22;9708;53.114;9.388;2023-02-18T11:22:22;10.40;99.90
19152;DHT22;9708;53.114;9.388;2023-02-18T11:24:53;10.50;99.90
19152;DHT22;9708;53.114;9.388;2023-02-18T11:27:27;10.40;99.90
19152;DHT22;9708;53.114;9.388;2023-02-18T11:30:00;10.50;99.90
19152;DHT22;9708;53.114;9.388;2023-02-18T11:32:29;10.40;99.90
19152;DHT22;9708;53.114;9.388;2023-02-18T11:34:57;10.40;99.90
19152;DHT22;9708;53.114;9.388;2023-02-18T11:37:24;10.40;99.90
19152;DHT22;9708;53.114;9.388;2023-02-18T11:39:52;10.40;99.90
19152;DHT22;9708;53.114;9.388;2023-02-18T11:42:22;10.40;99.90
19152;DHT22;9708;53.114;9.388;2023-02-18T11:44:52;10.40;99.90
19152;DHT22;9708;53.114;9.388;2023-02-18T11:47:26;10.40;99.90
19152;DHT22;9708;53.114;9.388;2023-02-18T11:50:03;10.30;99.90
19152;DHT22;9708;53.114;9.388;2023-02-18T11:52:40;10.30;99.90
19152;DHT22;9708;53.114;9.388;2023-02-18T11:55:14;10.30;99.90
19152;DHT22;9708;53.114;9.388;2023-02-18T11:57:44;10.40;99.90
19152;DHT22;9708;53.114;9.388;2023-02-18T12:00:20;10.40;99.90
19152;DHT22;9708;53.114;9.388;2023-02-18T12:02:49;10.30;99.90
19152;DHT22;9708;53.114;9.388;2023-02-18T12:08:33;10.30;99.90
19152;DHT22;9708;53.114;9.388;2023-02-18T12:11:11;10.40;99.90
19152;DHT22;9708;53.114;9.388;2023-02-18T12:13:44;10.30;99.90
19152;DHT22;9708;53.114;9.388;2023-02-18T12:16:20;10.40;99.90
19152;DHT22;9708;53.114;9.388;2023-02-18T12:19:04;10.40;99.90
19152;DHT22;9708;53.114;9.388;2023-02-18T12:21:44;10.40;99.90
19152;DHT22;9708;53.114;9.388;2023-02-18T12:24:30;10.30;99.90
19152;DHT22;9708;53.114;9.388;2023-02-18T12:27:08;10.30;99.90
19152;DHT22;9708;53.114;9.388;2023-02-18T12:29:47;10.30;99.90
19152;DHT22;9708;53.114;9.388;2023-02-18T12:32:31;10.40;99.90
19152;DHT22;9708;53.114;9.388;2023-02-18T12:35:18;10.40;99.90
19152;DHT22;9708;53.114;9.388;2023-02-18T12:38:02;10.40;99.90
19152;DHT22;9708;53.114;9.388;2023-02-18T12:40:52;10.40;99.90
19152;DHT22;9708;53.114;9.388;2023-02-18T12:43:32;10.40;99.90
19152;DHT22;9708;53.114;9.388;2023-02-18T12:46:22;10.40;99.90
19152;DHT22;9708;53.114;9.388;2023-02-18T12:49:03;10.40;99.90
19152;DHT22;9708;53.114;9.388;2023-02-18T12:51:37;10.40;99.90
19152;DHT22;9708;53.114;9.388;2023-02-18T12:54:26;10.50;99.90
19152;DHT22;9708;53.114;9.388;2023-02-18T12:57:10;10.40;99.90
19152;DHT22;9708;53.114;9.388;2023-02-18T13:00:02;10.30;99.90
19152;DHT22;9708;53.114;9.388;2023-02-18T13:02:54;10.50;99.90
19152;DHT22;9708;53.114;9.388;2023-02-18T13:05:33;10.50;99.90
19152;DHT22;9708;53.114;9.388;2023-02-18T13:08:20;10.40;99.90
19152;DHT22;9708;53.114;9.388;2023-02-18T13:10:55;10.50;99.90
19152;DHT22;9708;53.114;9.388;2023-02-18T13:13:30;10.50;99.90
19152;DHT22;9708;53.114;9.388;2023-02-18T13:16:01;10.50;99.90
19152;DHT22;9708;53.114;9.388;2023-02-18T13:18:31;10.50;99.90
19152;DHT22;9708;53.114;9.388;2023-02-18T13:21:03;10.50;99.90
19152;DHT22;9708;53.114;9.388;2023-02-18T13:23:34;10.50;99.90
19152;DHT22;9708;53.114;9.388;2023-02-18T13:26:06;10.50;99.90
19152;DHT22;9708;53.114;9.388;2023-02-18T13:28:38;10.50;99.90
19152;DHT22;9708;53.114;9.388;2023-02-18T13:31:22;10.40;99.90
19152;DHT22;9708;53.114;9.388;2023-02-18T13:33:56;10.40;99.90
19152;DHT22;9708;53.114;9.388;2023-02-18T13:36:43;10.40;99.90
19152;DHT22;9708;53.114;9.388;2023-02-18T13:39:15;10.40;99.90
19152;DHT22;9708;53.114;9.388;2023-02-18T13:41:46;10.40;99.90
19152;DHT22;9708;53.114;9.388;2023-02-18T13:44:39;10.40;99.90
19152;DHT22;9708;53.114;9.388;2023-02-18T13:47:07;10.40;99.90
19152;DHT22;9708;53.114;9.388;2023-02-18T13:49:37;10.50;99.90
19152;DHT22;9708;53.114;9.388;2023-02-18T13:52:06;10.40;99.90
19152;DHT22;9708;53.114;9.388;2023-02-18T13:54:38;10.40;99.90
19152;DHT22;9708;53.114;9.388;2023-02-18T13:57:13;10.40;99.90
19152;DHT22;9708;53.114;9.388;2023-02-18T13:59:44;10.50;99.90
19152;DHT22;9708;53.114;9.388;2023-02-18T14:02:32;10.40;99.90
19152;DHT22;9708;53.114;9.388;2023-02-18T14:05:18;10.50;99.90
19152;DHT22;9708;53.114;9.388;2023-02-18T14:07:48;10.50;99.90
19152;DHT22;9708;53.114;9.388;2023-02-18T14:10:31;10.50;99.90
19152;DHT22;9708;53.114;9.388;2023-02-18T14:13:25;10.40;99.90
19152;DHT22;9708;53.114;9.388;2023-02-18T14:16:03;10.40;99.90
19152;DHT22;9708;53.114;9.388;2023-02-18T14:18:32;10.40;99.90
19152;DHT22;9708;53.114;9.388;2023-02-18T14:21:18;10.40;99.90
19152;DHT22;9708;53.114;9.388;2023-02-18T14:23:56;10.50;99.90
19152;DHT22;9708;53.114;9.388;2023-02-18T14:26:31;10.50;99.90
19152;DHT22;9708;53.114;9.388;2023-02-18T14:29:09;10.60;99.90
19152;DHT22;9708;53.114;9.388;2023-02-18T14:31:47;10.60;99.90
19152;DHT22;9708;53.114;9.388;2023-02-18T14:37:49;10.60;99.90
19152;DHT22;9708;53.114;9.388;2023-02-18T14:40:37;10.50;99.90
19152;DHT22;9708;53.114;9.388;2023-02-18T14:43:12;10.50;99.90
19152;DHT22;9708;53.114;9.388;2023-02-18T14:45:59;10.60;99.90
19152;DHT22;9708;53.114;9.388;2023-02-18T14:51:29;10.50;99.90
19152;DHT22;9708;53.114;9.388;2023-02-18T14:54:03;10.50;99.90
19152;DHT22;9708;53.114;9.388;2023-02-18T14:56:32;10.40;99.90
19152;DHT22;9708;53.114;9.388;2023-02-18T14:59:04;10.40;99.90
19152;DHT22;9708;53.114;9.388;2023-02-18T15:01:33;10.50;99.90
19152;DHT22;9708;53.114;9.388;2023-02-18T15:04:01;10.40;99.90
19152;DHT22;9708;53.114;9.388;2023-02-18T15:06:31;10.50;99.90
19152;DHT22;9708;53.114;9.388;2023-02-18T15:08:58;10.40;99.90
19152;DHT22;9708;53.114;9.388;2023-02-18T15:11:34;10.40;99.90
19152;DHT22;9708;53.114;9.388;2023-02-18T15:14:07;10.40;99.90
19152;DHT22;9708;53.114;9.388;2023-02-18T15:16:35;10.30;99.90
19152;DHT22;9708;53.114;9.388;2023-02-18T15:19:04;10.20;99.90
19152;DHT22;9708;53.114;9.388;2023-02-18T15:21:34;10.10;99.90
19152;DHT22;9708;53.114;9.388;2023-02-18T15:24:05;10.20;99.90
19152;DHT22;9708;53.114;9.388;2023-02-18T15:26:34;10.20;99.90
19152;DHT22;9708;53.114;9.388;2023-02-18T15:29:05;10.10;99.90
19152;DHT22;9708;53.114;9.388;2023-02-18T15:31:36;10.10;99.90
19152;DHT22;9708;53.114;9.388;2023-02-18T15:34:16;10.00;99.90
19152;DHT22;9708;53.114;9.388;2023-02-18T15:36:49;10.10;99.90
19152;DHT22;9708;53.114;9.388;2023-02-18T15:39:16;10.10;99.90
19152;DHT22;9708;53.114;9.388;2023-02-18T15:41:43;10.10;99.90
19152;DHT22;9708;53.114;9.388;2023-02-18T15:44:19;10.20;99.90
19152;DHT22;9708;53.114;9.388;2023-02-18T15:46:48;10.20;99.90
19152;DHT22;9708;53.114;9.388;2023-02-18T15:49:17;10.20;99.90
19152;DHT22;9708;53.114;9.388;2023-02-18T15:51:45;10.20;99.90
19152;DHT22;9708;53.114;9.388;2023-02-18T15:54:15;10.30;99.90
19152;DHT22;9708;53.114;9.388;2023-02-18T15:56:44;10.20;99.90
19152;DHT22;9708;53.114;9.388;2023-02-18T15:59:18;10.10;99.90
19152;DHT22;9708;53.114;9.388;2023-02-18T16:01:48;10.10;99.90
19152;DHT22;9708;53.114;9.388;2023-02-18T16:04:15;10.10;99.90
19152;DHT22;9708;53.114;9.388;2023-02-18T16:06:46;10.10;99.90
19152;DHT22;9708;53.114;9.388;2023-02-18T16:09:18;10.10;99.90
19152;DHT22;9708;53.114;9.388;2023-02-18T16:11:48;10.10;99.90
19152;DHT22;9708;53.114;9.388;2023-02-18T16:14:30;10.00;99.90
19152;DHT22;9708;53.114;9.388;2023-02-18T16:17:05;10.10;99.90
19152;DHT22;9708;53.114;9.388;2023-02-18T16:19:32;10.10;99.90
19152;DHT22;9708;53.114;9.388;2023-02-18T16:22:03;10.00;99.90
19152;DHT22;9708;53.114;9.388;2023-02-18T16:24:30;10.00;99.90
19152;DHT22;9708;53.114;9.388;2023-02-18T16:26:59;10.00;99.90
19152;DHT22;9708;53.114;9.388;2023-02-18T16:29:34;9.90;99.90
19152;DHT22;9708;53.114;9.388;2023-02-18T16:32:01;10.00;99.90
19152;DHT22;9708;53.114;9.388;2023-02-18T16:34:28;10.00;99.90
19152;DHT22;9708;53.114;9.388;2023-02-18T16:36:55;9.90;99.90
19152;DHT22;9708;53.114;9.388;2023-02-18T16:39:39;9.90;99.90
19152;DHT22;9708;53.114;9.388;2023-02-18T16:42:08;9.90;99.90
19152;DHT22;9708;53.114;9.388;2023-02-18T16:44:37;10.00;99.90
19152;DHT22;9708;53.114;9.388;2023-02-18T16:47:04;10.00;99.90
19152;DHT22;9708;53.114;9.388;2023-02-18T16:49:31;10.00;99.90
19152;DHT22;9708;53.114;9.388;2023-02-18T16:51:59;9.80;99.90
19152;DHT22;9708;53.114;9.388;2023-02-18T16:54:26;9.80;99.90
19152;DHT22;9708;53.114;9.388;2023-02-18T16:56:53;9.80;99.90
19152;DHT22;9708;53.114;9.388;2023-02-18T16:59:20;9.70;99.90
19152;DHT22;9708;53.114;9.388;2023-02-18T17:01:48;9.60;99.90
19152;DHT22;9708;53.114;9.388;2023-02-18T17:04:17;9.70;99.90
19152;DHT22;9708;53.114;9.388;2023-02-18T17:06:44;9.70;99.90
19152;DHT22;9708;53.114;9.388;2023-02-18T17:09:13;9.60;99.90
19152;DHT22;9708;53.114;9.388;2023-02-18T17:11:42;9.60;99.90
19152;DHT22;9708;53.114;9.388;2023-02-18T17:14:12;9.60;99.90
19152;DHT22;9708;53.114;9.388;2023-02-18T17:16:40;9.60;99.90
19152;DHT22;9708;53.114;9.388;2023-02-18T17:19:08;9.70;99.90
19152;DHT22;9708;53.114;9.388;2023-02-18T17:21:34;9.70;99.90
19152;DHT22;9708;53.114;9.388;2023-02-18T17:24:01;9.60;99.90
19152;DHT22;9708;53.114;9.388;2023-02-18T17:26:29;9.70;99.90
19152;DHT22;9708;53.114;9.388;2023-02-18T17:28:57;9.60;99.90
19152;DHT22;9708;53.114;9.388;2023-02-18T17:31:26;9.60;99.90
19152;DHT22;9708;53.114;9.388;2023-02-18T17:33:55;9.70;99.90
19152;DHT22;9708;53.114;9.388;2023-02-18T17:36:24;9.60;99.90
19152;DHT22;9708;53.114;9.388;2023-02-18T17:38:51;9.60;99.90
19152;DHT22;9708;53.114;9.388;2023-02-18T17:41:18;9.60;99.90
19152;DHT22;9708;53.114;9.388;2023-02-18T17:43:45;9.50;99.90
19152;DHT22;9708;53.114;9.388;2023-02-18T17:46:13;9.50;99.90
19152;DHT22;9708;53.114;9.388;2023-02-18T17:48:41;9.50;99.90
19152;DHT22;9708;53.114;9.388;2023-02-18T17:51:17;9.40;99.90
19152;DHT22;9708;53.114;9.388;2023-02-18T17:53:48;9.40;99.90
19152;DHT22;9708;53.114;9.388;2023-02-18T17:56:15;9.40;99.90
19152;DHT22;9708;53.114;9.388;2023-02-18T17:58:42;9.40;99.90
19152;DHT22;9708;53.114;9.388;2023-02-18T18:01:10;9.30;99.90
19152;DHT22;9708;53.114;9.388;2023-02-18T18:03:37;9.40;99.90
19152;DHT22;9708;53.114;9.388;2023-02-18T18:06:08;9.30;99.90
19152;DHT22;9708;53.114;9.388;2023-02-18T18:08:39;9.30;99.90
19152;DHT22;9708;53.114;9.388;2023-02-18T18:11:12;9.40;99.90
19152;DHT22;9708;53.114;9.388;2023-02-18T18:13:39;9.50;99.90
19152;DHT22;9708;53.114;9.388;2023-02-18T18:16:08;9.50;99.90
19152;DHT22;9708;53.114;9.388;2023-02-18T18:18:35;9.30;99.90
19152;DHT22;9708;53.114;9.388;2023-02-18T18:21:02;9.30;99.90
19152;DHT22;9708;53.114;9.388;2023-02-18T18:23:30;9.20;99.90
19152;DHT22;9708;53.114;9.388;2023-02-18T18:25:58;9.20;99.90
19152;DHT22;9708;53.114;9.388;2023-02-18T18:28:27;9.00;99.90
19152;DHT22;9708;53.114;9.388;2023-02-18T18:30:55;9.00;99.90
19152;DHT22;9708;53.114;9.388;2023-02-18T18:33:24;9.00;99.90
19152;DHT22;9708;53.114;9.388;2023-02-18T18:35:53;9.00;99.90
19152;DHT22;9708;53.114;9.388;2023-02-18T18:38:22;9.10;99.90
19152;DHT22;9708;53.114;9.388;2023-02-18T18:40:49;9.00;99.90
19152;DHT22;9708;53.114;9.388;2023-02-18T18:43:18;9.00;99.90
19152;DHT22;9708;53.114;9.388;2023-02-18T18:45:46;8.80;99.90
19152;DHT22;9708;53.114;9.388;2023-02-18T18:48:14;8.80;99.90
19152;DHT22;9708;53.114;9.388;2023-02-18T18:50:41;8.80;99.90
19152;DHT22;9708;53.114;9.388;2023-02-18T18:53:15;8.70;99.90
19152;DHT22;9708;53.114;9.388;2023-02-18T18:55:43;8.80;99.90
19152;DHT22;9708;53.114;9.388;2023-02-18T18:58:09;8.70;99.90
19152;DHT22;9708;53.114;9.388;2023-02-18T19:00:39;8.60;99.90
19152;DHT22;9708;53.114;9.388;2023-02-18T19:03:10;8.60;99.90
19152;DHT22;9708;53.114;9.388;2023-02-18T19:05:39;8.60;99.90
19152;DHT22;9708;53.114;9.388;2023-02-18T19:08:07;8.60;99.90
19152;DHT22;9708;53.114;9.388;2023-02-18T19:10:35;8.50;99.90
19152;DHT22;9708;53.114;9.388;2023-02-18T19:13:04;8.50;99.90
19152;DHT22;9708;53.114;9.388;2023-02-18T19:15:31;8.50;99.90
19152;DHT22;9708;53.114;9.388;2023-02-18T19:17:59;8.50;99.90
19152;DHT22;9708;53.114;9.388;2023-02-18T19:20:29;8.40;99.90
19152;DHT22;9708;53.114;9.388;2023-02-18T19:22:57;8.50;99.90
19152;DHT22;9708;53.114;9.388;2023-02-18T19:25:24;8.50;99.90
19152;DHT22;9708;53.114;9.388;2023-02-18T19:27:51;8.40;99.90
19152;DHT22;9708;53.114;9.388;2023-02-18T19:30:19;8.30;99.90
19152;DHT22;9708;53.114;9.388;2023-02-18T19:32:47;8.20;99.90
19152;DHT22;9708;53.114;9.388;2023-02-18T19:35:15;8.10;99.90
19152;DHT22;9708;53.114;9.388;2023-02-18T19:37:43;8.10;99.90
19152;DHT22;9708;53.114;9.388;2023-02-18T19:40:13;8.10;99.90
19152;DHT22;9708;53.114;9.388;2023-02-18T19:42:40;8.20;99.90
19152;DHT22;9708;53.114;9.388;2023-02-18T19:45:08;8.20;99.90
19152;DHT22;9708;53.114;9.388;2023-02-18T19:47:35;8.30;99.90
19152;DHT22;9708;53.114;9.388;2023-02-18T19:50:03;8.20;99.90
19152;DHT22;9708;53.114;9.388;2023-02-18T19:52:30;8.10;99.90
19152;DHT22;9708;53.114;9.388;2023-02-18T19:54:59;8.10;99.90
19152;DHT22;9708;53.114;9.388;2023-02-18T19:57:25;8.20;99.90
19152;DHT22;9708;53.114;9.388;2023-02-18T19:59:52;8.30;99.90
19152;DHT22;9708;53.114;9.388;2023-02-18T20:02:21;8.30;99.90
19152;DHT22;9708;53.114;9.388;2023-02-18T20:04:49;8.10;99.90
19152;DHT22;9708;53.114;9.388;2023-02-18T20:07:18;8.10;99.90
19152;DHT22;9708;53.114;9.388;2023-02-18T20:09:45;8.10;99.90
19152;DHT22;9708;53.114;9.388;2023-02-18T20:12:13;8.00;99.90
19152;DHT22;9708;53.114;9.388;2023-02-18T20:14:40;8.00;99.90
19152;DHT22;9708;53.114;9.388;2023-02-18T20:17:08;8.00;99.90
19152;DHT22;9708;53.114;9.388;2023-02-18T20:19:35;8.10;99.90
19152;DHT22;9708;53.114;9.388;2023-02-18T20:22:01;8.00;99.90
19152;DHT22;9708;53.114;9.388;2023-02-18T20:24:29;7.90;99.90
19152;DHT22;9708;53.114;9.388;2023-02-18T20:26:57;7.80;99.90
19152;DHT22;9708;53.114;9.388;2023-02-18T20:29:25;7.80;99.90
19152;DHT22;9708;53.114;9.388;2023-02-18T20:31:52;7.80;99.90
19152;DHT22;9708;53.114;9.388;2023-02-18T20:34:20;7.80;99.90
19152;DHT22;9708;53.114;9.388;2023-02-18T20:36:48;7.70;99.90
19152;DHT22;9708;53.114;9.388;2023-02-18T20:39:16;7.80;99.90
19152;DHT22;9708;53.114;9.388;2023-02-18T20:41:44;7.80;99.90
19152;DHT22;9708;53.114;9.388;2023-02-18T20:44:11;7.80;99.90
19152;DHT22;9708;53.114;9.388;2023-02-18T20:46:39;7.80;99.90
19152;DHT22;9708;53.114;9.388;2023-02-18T20:49:07;7.80;99.90
19152;DHT22;9708;53.114;9.388;2023-02-18T20:51:36;7.80;99.90
19152;DHT22;9708;53.114;9.388;2023-02-18T20:54:04;7.80;99.90
19152;DHT22;9708;53.114;9.388;2023-02-18T20:56:33;7.80;99.90
19152;DHT22;9708;53.114;9.388;2023-02-18T20:59:00;7.80;99.90
19152;DHT22;9708;53.114;9.388;2023-02-18T21:01:27;7.70;99.90
19152;DHT22;9708;53.114;9.388;2023-02-18T21:03:56;7.70;99.90
19152;DHT22;9708;53.114;9.388;2023-02-18T21:06:23;7.70;99.90
19152;DHT22;9708;53.114;9.388;2023-02-18T21:08:51;7.50;99.90
19152;DHT22;9708;53.114;9.388;2023-02-18T21:11:20;7.40;99.90